Time;durP1;ratioP1;P1;durP2;ratioP2;P2;SDS_P1;SDS_P2;PMS_P1;PMS_P2;Temp;Humidity;BMP_temperature;BMP_pressure;BME280_temperature;BME280_humidity;BME280_pressure;Samples;Min_cycle;Max_cycle;Signal;HPM_P1;HPM_P2
2023/06/07 00:00:25;;;;;;;4.22;2.58;;;21.00;65.60;;;;;;6121964;23;20018;-63
2023/06/07 00:03:11;;;;;;;4.22;2.78;;;20.90;65.40;;;;;;6122714;23;20252;-62
2023/06/07 00:06:00;;;;;;;4.47;2.75;;;20.90;65.30;;;;;;6121840;23;20033;-63
2023/06/07 00:08:46;;;;;;;3.17;2.55;;;20.90;65.20;;;;;;6124505;23;20017;-64
2023/06/07 00:11:32;;;;;;;7.03;3.20;;;20.90;64.80;;;;;;6121799;23;20014;-63
2023/06/07 00:14:18;;;;;;;5.68;3.03;;;20.80;64.60;;;;;;6121955;23;20067;-63
2023/06/07 00:17:04;;;;;;;5.05;2.78;;;20.80;64.40;;;;;;6122211;23;20381;-63
2023/06/07 00:19:52;;;;;;;4.20;2.30;;;20.80;64.30;;;;;;6122859;23;20028;-63
2023/06/07 00:22:38;;;;;;;5.13;2.88;;;20.80;64.30;;;;;;6120892;23;20010;-64
2023/06/07 00:25:26;;;;;;;3.55;2.30;;;20.80;64.20;;;;;;6122582;23;20444;-64
2023/06/07 00:28:11;;;;;;;3.33;2.35;;;20.80;64.20;;;;;;6121969;23;20041;-70
2023/06/07 00:30:57;;;;;;;4.03;2.60;;;20.80;64.30;;;;;;6121783;23;20010;-70
2023/06/07 00:33:43;;;;;;;3.63;2.05;;;20.80;64.40;;;;;;6122913;23;20466;-69
2023/06/07 00:36:29;;;;;;;5.03;2.60;;;20.80;64.50;;;;;;6121113;23;20046;-70
2023/06/07 00:39:15;;;;;;;5.90;2.70;;;20.70;64.50;;;;;;6120143;23;20455;-72
2023/06/07 00:42:01;;;;;;;8.30;3.35;;;20.70;64.40;;;;;;6120708;23;20006;-72
2023/06/07 00:44:47;;;;;;;5.50;3.40;;;20.70;64.50;;;;;;6122597;23;20018;-72
2023/06/07 00:47:35;;;;;;;7.00;2.55;;;20.70;64.60;;;;;;6121361;23;20110;-72
2023/06/07 00:50:21;;;;;;;5.72;2.15;;;20.70;64.50;;;;;;6121354;23;20343;-72
2023/06/07 00:53:07;;;;;;;3.55;2.63;;;20.70;64.20;;;;;;6122357;23;20024;-72
2023/06/07 00:55:53;;;;;;;6.13;2.80;;;20.60;63.90;;;;;;6122168;23;20101;-69
2023/06/07 00:58:40;;;;;;;4.53;2.63;;;20.60;63.80;;;;;;6122082;23;20021;-69
2023/06/07 01:01:27;;;;;;;5.88;2.88;;;20.60;63.50;;;;;;6122107;23;20025;-69
2023/06/07 01:04:13;;;;;;;19.85;3.75;;;20.60;63.30;;;;;;6120973;23;20016;-69
2023/06/07 01:07:02;;;;;;;6.07;2.65;;;20.60;63.10;;;;;;6120730;23;20013;-70
2023/06/07 01:09:48;;;;;;;3.40;2.40;;;20.50;62.80;;;;;;6121234;23;20422;-70
2023/06/07 01:12:35;;;;;;;3.88;2.90;;;20.50;62.70;;;;;;6098450;23;20380;-70
2023/06/07 01:15:22;;;;;;;3.85;2.70;;;20.50;62.50;;;;;;6122649;23;20033;-70
2023/06/07 01:18:09;;;;;;;3.80;2.70;;;20.50;62.30;;;;;;6120764;23;20009;-70
2023/06/07 01:20:57;;;;;;;4.97;2.85;;;20.50;62.40;;;;;;6119714;23;20467;-70
2023/06/07 01:23:43;;;;;;;5.95;2.53;;;20.50;62.30;;;;;;6121706;23;20145;-70
2023/06/07 01:26:29;;;;;;;4.30;2.17;;;20.50;62.20;;;;;;6122011;23;20084;-70
2023/06/07 01:29:15;;;;;;;4.07;2.67;;;20.50;62.20;;;;;;6109566;23;20015;-70
2023/06/07 01:32:07;;;;;;;3.58;2.35;;;20.50;62.30;;;;;;6119307;23;20109;-68
2023/06/07 01:34:54;;;;;;;6.68;3.35;;;20.40;62.30;;;;;;6122132;23;20037;-68
2023/06/07 01:37:42;;;;;;;3.63;2.30;;;20.40;62.20;;;;;;6120164;23;20647;-69
2023/06/07 01:40:33;;;;;;;5.13;2.85;;;20.40;62.40;;;;;;6122615;23;20018;-69
2023/06/07 01:43:21;;;;;;;3.83;2.58;;;20.40;63.10;;;;;;6121533;23;20085;-69
2023/06/07 01:46:08;;;;;;;4.22;2.50;;;20.40;62.70;;;;;;6097971;23;20022;-69
2023/06/07 01:48:54;;;;;;;7.22;2.83;;;20.40;62.70;;;;;;6119861;23;20018;-69
2023/06/07 01:51:40;;;;;;;4.15;2.60;;;20.40;62.80;;;;;;6120618;23;20014;-69
2023/06/07 01:54:26;;;;;;;5.47;2.90;;;20.30;62.60;;;;;;6120863;23;20128;-71
2023/06/07 01:57:19;;;;;;;4.53;3.08;;;20.30;62.60;;;;;;6121576;23;20017;-72
2023/06/07 02:00:21;;;;;;;3.63;2.58;;;20.30;62.50;;;;;;6122446;23;20026;-70
2023/06/07 02:03:19;;;;;;;5.20;2.90;;;20.30;62.20;;;;;;6120687;23;20018;-70
2023/06/07 02:06:08;;;;;;;3.25;2.17;;;20.30;62.10;;;;;;6119224;23;20025;-70
2023/06/07 02:08:56;;;;;;;5.38;2.88;;;20.30;62.20;;;;;;6122206;23;20017;-70
2023/06/07 02:11:44;;;;;;;3.65;2.70;;;20.30;62.20;;;;;;6122421;23;20089;-69
2023/06/07 02:14:30;;;;;;;6.43;2.63;;;20.30;61.90;;;;;;6122450;23;20037;-69
2023/06/07 02:17:16;;;;;;;4.68;2.30;;;20.30;61.60;;;;;;6123159;23;20010;-69
2023/06/07 02:20:03;;;;;;;4.30;2.50;;;20.20;61.60;;;;;;6123728;23;20018;-69
2023/06/07 02:22:49;;;;;;;4.38;2.88;;;20.30;61.50;;;;;;6100945;23;20010;-69
2023/06/07 02:25:35;;;;;;;4.28;2.88;;;20.20;61.30;;;;;;6121200;23;20033;-69
2023/06/07 02:28:20;;;;;;;5.05;3.22;;;20.20;61.20;;;;;;6122347;23;20014;-71
2023/06/07 02:31:06;;;;;;;7.68;4.03;;;20.20;61.20;;;;;;6122317;23;20045;-70
2023/06/07 02:33:52;;;;;;;7.15;5.05;;;20.20;61.20;;;;;;6113009;23;20041;-70
2023/06/07 02:36:39;;;;;;;10.73;7.30;;;20.20;61.30;;;;;;6108341;23;20369;-70
2023/06/07 02:39:25;;;;;;;10.27;6.72;;;20.20;61.20;;;;;;6124759;23;20462;-70
2023/06/07 02:42:11;;;;;;;7.72;6.53;;;20.10;60.90;;;;;;6122151;23;20010;-70
2023/06/07 02:44:57;;;;;;;7.30;5.78;;;20.10;60.90;;;;;;6121810;23;20014;-69
2023/06/07 02:47:45;;;;;;;12.70;5.88;;;20.10;61.00;;;;;;6121248;23;20010;-69
2023/06/07 02:50:31;;;;;;;8.07;5.13;;;20.10;60.90;;;;;;6121901;23;20010;-70
2023/06/07 02:53:17;;;;;;;5.85;4.22;;;20.10;61.00;;;;;;6121308;23;20010;-69
2023/06/07 02:56:03;;;;;;;5.70;3.13;;;20.10;60.90;;;;;;6120142;23;20096;-69
2023/06/07 02:58:49;;;;;;;4.78;3.05;;;20.10;60.80;;;;;;6122700;23;20025;-69
2023/06/07 03:01:37;;;;;;;5.30;2.80;;;20.10;60.70;;;;;;6121382;23;20579;-70
2023/06/07 03:04:25;;;;;;;5.88;3.28;;;20.10;60.70;;;;;;6123432;23;20423;-70
2023/06/07 03:07:12;;;;;;;5.30;2.63;;;20.10;60.60;;;;;;6122457;23;20009;-69
2023/06/07 03:09:58;;;;;;;4.50;2.63;;;20.10;60.60;;;;;;6121115;23;20018;-69
2023/06/07 03:12:44;;;;;;;9.73;3.33;;;20.10;60.50;;;;;;6088601;23;20512;-69
2023/06/07 03:15:32;;;;;;;5.32;2.60;;;20.10;60.50;;;;;;6122216;23;20046;-69
2023/06/07 03:18:18;;;;;;;5.55;2.50;;;20.10;60.30;;;;;;6122526;23;20010;-69
2023/06/07 03:21:04;;;;;;;6.63;2.47;;;20.10;60.40;;;;;;6121291;23;20479;-70
2023/06/07 03:23:52;;;;;;;5.97;2.45;;;20.10;60.40;;;;;;6111911;23;20022;-70
2023/06/07 03:26:39;;;;;;;4.20;2.45;;;20.10;60.50;;;;;;6109938;23;20010;-70
2023/06/07 03:29:26;;;;;;;4.82;2.83;;;20.10;60.60;;;;;;6120599;23;20010;-69
2023/06/07 03:32:12;;;;;;;4.13;2.47;;;20.10;60.70;;;;;;6121930;23;20069;-70
2023/06/07 03:34:58;;;;;;;7.70;2.88;;;20.10;60.70;;;;;;6114983;23;20006;-71
2023/06/07 03:37:44;;;;;;;3.58;2.45;;;20.10;60.80;;;;;;6122421;23;20045;-73
2023/06/07 03:40:30;;;;;;;5.88;2.95;;;20.10;61.30;;;;;;6120843;23;20452;-68
2023/06/07 03:43:16;;;;;;;6.63;2.65;;;20.10;60.70;;;;;;6122222;23;20401;-70
2023/06/07 03:46:02;;;;;;;5.47;2.53;;;20.10;60.90;;;;;;6119874;23;20457;-77
2023/06/07 03:48:48;;;;;;;5.10;2.40;;;20.10;61.00;;;;;;6111814;23;20021;-74
2023/06/07 03:51:38;;;;;;;4.20;2.85;;;20.20;61.10;;;;;;6120800;23;20066;-74
2023/06/07 03:54:24;;;;;;;4.72;2.35;;;20.20;60.90;;;;;;6119964;23;20006;-73
2023/06/07 03:57:10;;;;;;;4.88;2.50;;;20.20;61.00;;;;;;6119365;23;20065;-74
2023/06/07 03:59:57;;;;;;;4.90;3.10;;;20.20;60.90;;;;;;6114433;23;20142;-74
2023/06/07 04:02:43;;;;;;;4.30;2.80;;;20.30;61.00;;;;;;6119499;23;20010;-74
2023/06/07 04:05:29;;;;;;;6.20;2.50;;;20.30;61.00;;;;;;6120928;23;20085;-73
2023/06/07 04:08:16;;;;;;;6.38;2.22;;;20.30;61.10;;;;;;6119718;23;20061;-70
2023/06/07 04:11:02;;;;;;;2.70;1.98;;;20.30;61.10;;;;;;6118596;23;20314;-72
2023/06/07 04:13:48;;;;;;;9.20;2.78;;;20.30;61.20;;;;;;6119281;23;20045;-74
2023/06/07 04:16:34;;;;;;;5.65;2.97;;;20.40;61.10;;;;;;6119433;23;20009;-73
2023/06/07 04:19:19;;;;;;;4.63;2.70;;;20.40;61.20;;;;;;6121770;23;20017;-73
2023/06/07 04:22:05;;;;;;;7.95;3.03;;;20.40;61.20;;;;;;6117442;23;20028;-73
2023/06/07 04:24:51;;;;;;;4.95;2.67;;;20.40;61.40;;;;;;6119917;23;20057;-73
2023/06/07 04:27:38;;;;;;;4.28;2.70;;;20.50;61.60;;;;;;6121161;23;20013;-72
2023/06/07 04:30:25;;;;;;;5.72;2.58;;;20.50;61.30;;;;;;6120914;23;20028;-77
2023/06/07 04:33:13;;;;;;;29.83;5.20;;;20.50;61.20;;;;;;6121492;23;20069;-75
2023/06/07 04:35:59;;;;;;;8.55;3.05;;;20.50;61.40;;;;;;6112562;23;20014;-73
2023/06/07 04:38:46;;;;;;;4.40;2.85;;;20.50;61.30;;;;;;6120889;23;20022;-74
2023/06/07 04:41:33;;;;;;;5.50;2.60;;;20.50;61.40;;;;;;6098637;23;20092;-74
2023/06/07 04:44:27;;;;;;;5.32;3.33;;;20.50;61.40;;;;;;6120291;23;20014;-76
2023/06/07 04:47:13;;;;;;;4.53;2.38;;;20.50;61.30;;;;;;6121742;23;20097;-76
2023/06/07 04:50:00;;;;;;;5.32;2.83;;;20.60;61.30;;;;;;6122668;23;20014;-74
2023/06/07 04:52:49;;;;;;;4.55;2.65;;;20.60;61.20;;;;;;6122557;23;20006;-77
2023/06/07 04:55:35;;;;;;;4.32;3.05;;;20.60;61.10;;;;;;6120737;23;20017;-75
2023/06/07 04:58:21;;;;;;;4.50;2.85;;;20.70;60.90;;;;;;6121570;23;20048;-75
2023/06/07 05:01:11;;;;;;;5.22;2.83;;;20.70;61.20;;;;;;6120565;23;20078;-77
2023/06/07 05:04:00;;;;;;;6.18;3.20;;;20.80;61.20;;;;;;6113459;23;20014;-77
2023/06/07 05:06:46;;;;;;;7.78;2.90;;;20.80;61.20;;;;;;6120680;23;20018;-76
2023/06/07 05:09:32;;;;;;;3.97;2.65;;;20.80;61.20;;;;;;6120254;23;20010;-77
2023/06/07 05:12:18;;;;;;;7.00;3.10;;;20.90;61.00;;;;;;6120732;23;20112;-76
2023/06/07 05:15:05;;;;;;;6.00;3.40;;;20.90;60.90;;;;;;6118016;23;20009;-75
2023/06/07 05:17:51;;;;;;;5.00;3.17;;;20.90;61.00;;;;;;6119316;23;20009;-74
2023/06/07 05:20:37;;;;;;;5.32;2.47;;;20.90;60.80;;;;;;6121034;23;20309;-76
2023/06/07 05:23:25;;;;;;;4.13;2.45;;;20.90;60.80;;;;;;6121141;23;20018;-76
2023/06/07 05:26:11;;;;;;;6.57;2.67;;;21.00;60.70;;;;;;6091508;23;20037;-75
2023/06/07 05:28:57;;;;;;;7.53;3.25;;;21.00;60.50;;;;;;6092444;23;20021;-75
2023/06/07 05:31:43;;;;;;;5.38;2.95;;;21.10;60.50;;;;;;6093293;23;20007;-75
2023/06/07 05:34:29;;;;;;;4.25;2.60;;;21.10;60.50;;;;;;6091746;23;20010;-75
2023/06/07 05:37:15;;;;;;;3.80;2.30;;;21.10;60.50;;;;;;6092010;23;20511;-75
2023/06/07 05:40:04;;;;;;;4.95;2.60;;;21.20;60.40;;;;;;6093654;23;20175;-75
2023/06/07 05:42:50;;;;;;;8.05;2.60;;;21.30;60.00;;;;;;6092166;23;20009;-76
2023/06/07 05:45:36;;;;;;;4.03;2.30;;;21.40;59.70;;;;;;6092607;23;20429;-74
2023/06/07 05:48:22;;;;;;;7.25;2.50;;;21.40;59.70;;;;;;6094569;23;20021;-73
2023/06/07 05:51:10;;;;;;;4.40;2.90;;;21.40;59.60;;;;;;6095841;23;20011;-73
2023/06/07 05:53:56;;;;;;;3.75;2.40;;;21.40;59.30;;;;;;6094630;23;20006;-73
2023/06/07 05:56:42;;;;;;;5.28;2.30;;;21.40;59.20;;;;;;6093892;23;20093;-74
2023/06/07 05:59:28;;;;;;;5.72;2.83;;;21.40;59.40;;;;;;6093879;23;20509;-74
2023/06/07 06:02:16;;;;;;;5.47;2.70;;;21.40;59.30;;;;;;6094477;23;20449;-73
2023/06/07 06:05:02;;;;;;;3.67;2.00;;;21.50;59.60;;;;;;6095964;23;20348;-71
2023/06/07 06:07:48;;;;;;;5.78;2.60;;;21.50;59.50;;;;;;6093807;23;20456;-72
2023/06/07 06:10:34;;;;;;;6.05;2.42;;;21.60;59.00;;;;;;6091660;23;20030;-72
2023/06/07 06:13:20;;;;;;;6.20;2.25;;;21.60;58.60;;;;;;6091280;23;20085;-72
2023/06/07 06:16:07;;;;;;;5.85;2.42;;;21.70;58.70;;;;;;6092223;23;20018;-72
2023/06/07 06:18:52;;;;;;;4.38;2.35;;;21.80;58.30;;;;;;6095622;23;20018;-71
2023/06/07 06:21:38;;;;;;;9.52;2.30;;;21.80;58.10;;;;;;6093611;23;20017;-71
2023/06/07 06:24:24;;;;;;;5.20;2.35;;;21.80;57.80;;;;;;6106153;23;20026;-73
2023/06/07 06:27:12;;;;;;;4.75;2.90;;;21.90;58.00;;;;;;6124735;23;20070;-71
2023/06/07 06:29:58;;;;;;;4.07;2.40;;;21.90;57.60;;;;;;6100865;23;20013;-72
2023/06/07 06:32:43;;;;;;;3.55;2.33;;;21.90;57.50;;;;;;6122462;23;20013;-71
2023/06/07 06:35:32;;;;;;;3.83;2.28;;;22.00;57.40;;;;;;6123881;23;20009;-73
2023/06/07 06:38:19;;;;;;;4.20;2.20;;;22.00;57.70;;;;;;6123481;23;20014;-71
2023/06/07 06:41:04;;;;;;;4.15;2.45;;;22.10;57.80;;;;;;6119908;23;20018;-72
2023/06/07 06:43:50;;;;;;;4.13;2.30;;;22.20;57.50;;;;;;6123788;23;20021;-73
2023/06/07 06:46:36;;;;;;;3.33;2.10;;;22.30;56.80;;;;;;6120458;23;20017;-73
2023/06/07 06:49:22;;;;;;;5.88;2.38;;;22.30;56.90;;;;;;6124105;23;20014;-73
2023/06/07 06:52:08;;;;;;;4.00;2.30;;;22.40;56.90;;;;;;6099991;23;20018;-72
2023/06/07 06:54:54;;;;;;;4.18;2.38;;;22.40;56.50;;;;;;6123009;23;20069;-75
2023/06/07 06:57:40;;;;;;;4.10;2.42;;;22.50;56.80;;;;;;6122358;23;20018;-75
2023/06/07 07:00:26;;;;;;;3.30;2.40;;;22.60;56.50;;;;;;6122778;23;20045;-75
2023/06/07 07:03:12;;;;;;;5.40;2.17;;;22.70;56.40;;;;;;6122670;23;20428;-76
2023/06/07 07:05:58;;;;;;;6.03;2.42;;;22.70;55.70;;;;;;6123374;23;20010;-76
2023/06/07 07:08:44;;;;;;;4.60;2.15;;;22.80;56.40;;;;;;6124261;23;20021;-76
2023/06/07 07:11:30;;;;;;;2.83;2.00;;;22.90;56.30;;;;;;6122160;23;20010;-74
2023/06/07 07:14:16;;;;;;;4.28;2.50;;;23.00;56.00;;;;;;6121583;23;20022;-71
2023/06/07 07:17:02;;;;;;;5.35;2.35;;;23.00;55.70;;;;;;6122977;23;20013;-74
2023/06/07 07:19:48;;;;;;;4.78;2.83;;;23.00;55.10;;;;;;6123456;23;20022;-72
2023/06/07 07:22:34;;;;;;;4.90;3.05;;;23.00;55.30;;;;;;6120843;23;20010;-73
2023/06/07 07:25:20;;;;;;;6.07;2.40;;;23.10;55.50;;;;;;6121248;23;20026;-73
2023/06/07 07:28:06;;;;;;;13.80;3.13;;;23.20;55.10;;;;;;6122572;23;20014;-73
2023/06/07 07:30:52;;;;;;;4.15;2.00;;;23.20;55.10;;;;;;6120968;23;20025;-72
2023/06/07 07:33:39;;;;;;;5.38;2.33;;;23.30;55.40;;;;;;6098619;23;20081;-73
2023/06/07 07:36:25;;;;;;;5.85;2.20;;;23.40;54.90;;;;;;6120971;23;20044;-71
2023/06/07 07:39:15;;;;;;;3.58;2.45;;;23.50;54.80;;;;;;6121536;23;20085;-70
2023/06/07 07:42:03;;;;;;;6.75;2.63;;;23.50;54.80;;;;;;6120233;23;20010;-71
2023/06/07 07:44:49;;;;;;;5.57;2.47;;;23.60;54.90;;;;;;6121493;23;20404;-70
2023/06/07 07:47:34;;;;;;;4.70;3.00;;;23.60;54.50;;;;;;6122639;23;20010;-70
2023/06/07 07:50:20;;;;;;;6.30;2.80;;;23.70;54.70;;;;;;6123523;23;20373;-71
2023/06/07 07:53:06;;;;;;;3.70;2.33;;;23.80;54.80;;;;;;6123366;23;20113;-72
2023/06/07 07:55:52;;;;;;;4.75;2.42;;;23.90;54.30;;;;;;6120494;23;20010;-71
2023/06/07 07:58:38;;;;;;;5.25;2.42;;;24.00;54.20;;;;;;6122560;23;20016;-72
2023/06/07 08:01:24;;;;;;;5.80;2.50;;;24.00;53.90;;;;;;6121987;23;20032;-72
2023/06/07 08:04:10;;;;;;;4.95;2.38;;;24.10;53.70;;;;;;6120232;23;20010;-72
2023/06/07 08:06:56;;;;;;;4.03;2.55;;;24.10;54.00;;;;;;6120440;23;20046;-72
2023/06/07 08:09:42;;;;;;;5.95;3.22;;;24.10;53.80;;;;;;6122282;23;20006;-72
2023/06/07 08:12:28;;;;;;;3.67;2.60;;;24.20;53.60;;;;;;6122064;23;20092;-71
2023/06/07 08:15:14;;;;;;;7.05;2.70;;;24.20;53.70;;;;;;6121133;23;20013;-73
2023/06/07 08:18:00;;;;;;;4.18;2.47;;;24.20;53.50;;;;;;6122313;23;20018;-73
2023/06/07 08:20:46;;;;;;;3.75;2.30;;;24.30;53.90;;;;;;6099090;23;20161;-73
2023/06/07 08:23:32;;;;;;;6.15;2.38;;;24.40;53.30;;;;;;6122684;23;20065;-72
2023/06/07 08:26:17;;;;;;;5.15;2.33;;;24.50;53.60;;;;;;6121857;23;20077;-71
2023/06/07 08:29:05;;;;;;;3.80;2.25;;;24.70;53.80;;;;;;6124193;23;20073;-71
2023/06/07 08:31:51;;;;;;;4.80;2.50;;;24.80;53.20;;;;;;6120033;23;20016;-68
2023/06/07 08:34:39;;;;;;;4.30;2.63;;;24.90;53.20;;;;;;6122574;23;20021;-71
2023/06/07 08:37:25;;;;;;;3.75;2.47;;;25.10;52.40;;;;;;6119952;23;20089;-71
2023/06/07 08:40:12;;;;;;;6.85;2.72;;;25.20;52.90;;;;;;6121736;23;20048;-71
2023/06/07 08:42:58;;;;;;;6.72;2.45;;;25.30;52.70;;;;;;6113200;23;20010;-74
2023/06/07 08:45:44;;;;;;;4.35;2.30;;;25.30;52.50;;;;;;6099711;23;20038;-72
2023/06/07 08:48:32;;;;;;;5.53;2.05;;;25.50;52.50;;;;;;6121746;23;20021;-71
2023/06/07 08:51:21;;;;;;;4.35;2.20;;;25.60;52.20;;;;;;6121053;23;20014;-71
2023/06/07 08:54:10;;;;;;;6.20;2.33;;;25.60;51.50;;;;;;6120765;23;20014;-70
2023/06/07 08:56:57;;;;;;;3.80;2.50;;;25.70;51.10;;;;;;6120044;23;20109;-71
2023/06/07 08:59:45;;;;;;;6.25;2.70;;;25.90;51.80;;;;;;6121543;23;20029;-71
2023/06/07 09:02:31;;;;;;;3.78;2.25;;;26.00;51.30;;;;;;6118843;23;20006;-72
2023/06/07 09:05:21;;;;;;;4.78;2.45;;;26.10;50.60;;;;;;6121030;23;20022;-72
2023/06/07 09:08:07;;;;;;;2.92;1.98;;;26.10;50.60;;;;;;6121474;23;20003;-71
2023/06/07 09:10:53;;;;;;;7.03;2.30;;;26.20;50.70;;;;;;6087545;23;20432;-77
2023/06/07 09:13:40;;;;;;;11.38;3.00;;;26.20;50.00;;;;;;6121461;23;20002;-77
2023/06/07 09:16:32;;;;;;;3.95;1.98;;;26.20;49.80;;;;;;6123102;23;20014;-76
2023/06/07 09:19:36;;;;;;;3.47;2.50;;;26.30;50.30;;;;;;6121918;23;20361;-75
2023/06/07 09:22:23;;;;;;;5.13;2.27;;;26.40;50.80;;;;;;6120811;23;20486;-74
2023/06/07 09:25:09;;;;;;;4.43;2.10;;;26.50;50.50;;;;;;6122972;23;20393;-76
2023/06/07 09:27:56;;;;;;;7.72;2.75;;;26.50;50.20;;;;;;6122962;23;20029;-73
2023/06/07 09:30:55;;;;;;;3.42;2.60;;;26.60;50.00;;;;;;6122585;23;20013;-75
2023/06/07 09:33:41;;;;;;;4.50;1.92;;;26.60;49.80;;;;;;6121605;23;20014;-76
2023/06/07 09:36:28;;;;;;;3.90;2.20;;;26.60;49.80;;;;;;6121251;23;20018;-75
2023/06/07 09:39:40;;;;;;;10.20;3.00;;;26.60;50.20;;;;;;6121788;23;20325;-72
2023/06/07 09:42:26;;;;;;;4.30;2.28;;;26.70;50.30;;;;;;6100230;23;20104;-73
2023/06/07 09:45:17;;;;;;;4.07;2.38;;;26.70;50.00;;;;;;6120721;23;20005;-74
2023/06/07 09:48:05;;;;;;;9.57;2.10;;;26.80;50.20;;;;;;6121814;23;20018;-71
2023/06/07 09:50:58;;;;;;;3.22;2.28;;;27.00;50.10;;;;;;6121970;23;20141;-73
2023/06/07 09:54:00;;;;;;;3.92;1.95;;;27.10;49.70;;;;;;6122036;23;20018;-74
2023/06/07 09:56:46;;;;;;;5.20;2.15;;;27.10;49.90;;;;;;6122273;23;20014;-75
2023/06/07 09:59:33;;;;;;;3.90;2.03;;;27.10;49.40;;;;;;6122827;23;20030;-73
2023/06/07 10:02:26;;;;;;;4.70;1.98;;;27.10;49.30;;;;;;6119565;23;20013;-74
2023/06/07 10:05:14;;;;;;;3.65;2.47;;;27.20;49.10;;;;;;6122205;23;20010;-72
2023/06/07 10:08:00;;;;;;;6.25;2.92;;;27.30;48.80;;;;;;6121800;23;20506;-75
2023/06/07 10:10:51;;;;;;;4.13;2.20;;;27.30;48.80;;;;;;6121971;23;20687;-73
2023/06/07 10:13:38;;;;;;;3.65;2.20;;;27.50;49.40;;;;;;6121945;23;20313;-72
2023/06/07 10:16:28;;;;;;;4.18;2.38;;;27.50;49.10;;;;;;6122080;23;20010;-74
2023/06/07 10:19:35;;;;;;;4.88;2.25;;;27.40;48.90;;;;;;6122259;23;20022;-72
2023/06/07 10:22:26;;;;;;;3.25;2.10;;;27.40;48.60;;;;;;6121261;23;20726;-74
2023/06/07 10:25:18;;;;;;;6.00;2.33;;;27.40;48.20;;;;;;6121815;23;20022;-72
2023/06/07 10:28:17;;;;;;;3.65;2.72;;;27.40;48.70;;;;;;6121255;23;20018;-74
2023/06/07 10:31:08;;;;;;;3.10;2.25;;;27.40;48.40;;;;;;6120003;23;20069;-73
2023/06/07 10:33:56;;;;;;;4.25;2.08;;;27.50;48.50;;;;;;6120224;23;20014;-73
2023/06/07 10:36:42;;;;;;;5.95;2.17;;;27.50;48.90;;;;;;6120705;23;20018;-73
2023/06/07 10:39:28;;;;;;;5.95;1.85;;;27.60;48.00;;;;;;6117915;23;20018;-73
2023/06/07 10:42:16;;;;;;;5.55;2.03;;;27.60;48.30;;;;;;6121650;23;20014;-74
2023/06/07 10:45:02;;;;;;;5.32;2.10;;;27.70;47.80;;;;;;6121755;23;20017;-73
2023/06/07 10:47:48;;;;;;;3.85;2.17;;;27.80;47.90;;;;;;6100185;23;20014;-74
2023/06/07 10:50:47;;;;;;;4.25;2.33;;;27.90;48.40;;;;;;6120644;23;20053;-74
2023/06/07 10:53:50;;;;;;;3.20;2.30;;;28.00;48.00;;;;;;6121417;23;20334;-72
2023/06/07 10:56:37;;;;;;;3.83;2.38;;;28.10;48.00;;;;;;6121451;23;20010;-72
2023/06/07 10:59:23;;;;;;;4.10;2.40;;;28.10;47.10;;;;;;6119952;23;20104;-72
2023/06/07 11:02:23;;;;;;;4.63;2.17;;;28.00;46.60;;;;;;6120914;23;20184;-73
2023/06/07 11:05:10;;;;;;;3.90;2.08;;;28.00;46.10;;;;;;6121464;23;20014;-72
2023/06/07 11:08:23;;;;;;;2.80;2.00;;;28.00;46.40;;;;;;6120358;23;20009;-74
2023/06/07 11:11:38;;;;;;;5.05;2.30;;;28.00;46.00;;;;;;6122947;23;20013;-75
2023/06/07 11:14:24;;;;;;;3.75;2.40;;;28.00;46.60;;;;;;6098415;23;20428;-73
2023/06/07 11:17:48;;;;;;;3.42;2.17;;;28.00;46.20;;;;;;6121683;23;20329;-78
2023/06/07 11:20:37;;;;;;;3.75;2.33;;;28.00;46.60;;;;;;6122206;23;20337;-76
2023/06/07 11:23:24;;;;;;;3.40;2.00;;;28.10;46.40;;;;;;6123076;23;20437;-76
2023/06/07 11:26:12;;;;;;;5.65;2.90;;;28.10;46.50;;;;;;6122680;23;20531;-79
2023/06/07 11:28:58;;;;;;;3.92;2.28;;;28.20;46.10;;;;;;6122618;23;20440;-74
2023/06/07 11:31:58;;;;;;;3.42;2.30;;;28.20;46.30;;;;;;6122176;23;20329;-72
2023/06/07 11:34:56;;;;;;;5.47;2.58;;;28.20;45.80;;;;;;6108538;23;20463;-75
2023/06/07 11:37:42;;;;;;;3.70;2.20;;;28.20;46.10;;;;;;6119296;23;20471;-73
2023/06/07 11:40:28;;;;;;;4.07;2.25;;;28.20;45.90;;;;;;6120226;23;20024;-72
2023/06/07 11:43:17;;;;;;;4.43;2.13;;;28.20;46.10;;;;;;6119445;23;20010;-73
2023/06/07 11:46:03;;;;;;;3.22;2.20;;;28.20;46.20;;;;;;6120291;23;20388;-72
2023/06/07 11:48:49;;;;;;;3.35;2.30;;;28.40;46.20;;;;;;6099021;23;20010;-73
2023/06/07 11:51:36;;;;;;;4.65;2.00;;;28.40;46.10;;;;;;6100145;23;20021;-73
2023/06/07 11:54:24;;;;;;;5.40;2.35;;;28.40;46.00;;;;;;6120758;23;20030;-74
2023/06/07 11:57:11;;;;;;;3.40;2.03;;;28.40;45.60;;;;;;6119010;23;20006;-73
2023/06/07 11:59:56;;;;;;;4.38;2.15;;;28.30;46.20;;;;;;6120776;23;20053;-74
2023/06/07 12:02:43;;;;;;;13.65;2.90;;;28.30;46.30;;;;;;6121482;23;20014;-73
2023/06/07 12:05:30;;;;;;;3.45;1.95;;;28.30;45.90;;;;;;6121354;23;20322;-74
2023/06/07 12:08:17;;;;;;;5.00;2.58;;;28.20;46.00;;;;;;6120073;23;20041;-70
2023/06/07 12:11:03;;;;;;;3.80;2.22;;;28.30;46.20;;;;;;6119569;23;20029;-69
2023/06/07 12:13:53;;;;;;;3.90;2.15;;;28.30;46.30;;;;;;6119588;23;20076;-71
2023/06/07 12:16:39;;;;;;;3.25;1.92;;;28.30;45.70;;;;;;6098978;23;20594;-71
2023/06/07 12:19:25;;;;;;;2.67;1.92;;;28.30;45.80;;;;;;6120719;23;20471;-72
2023/06/07 12:22:11;;;;;;;4.32;2.45;;;28.30;45.90;;;;;;6119353;23;20006;-70
2023/06/07 12:25:08;;;;;;;3.53;2.33;;;28.40;46.00;;;;;;6120750;23;20068;-72
2023/06/07 12:27:54;;;;;;;5.20;2.40;;;28.50;46.00;;;;;;6121829;23;20014;-72
2023/06/07 12:30:41;;;;;;;3.38;2.25;;;28.50;45.80;;;;;;6119938;23;20013;-72
2023/06/07 12:33:28;;;;;;;3.47;2.20;;;28.50;45.90;;;;;;6121465;23;20542;-76
2023/06/07 12:36:16;;;;;;;4.57;2.55;;;28.50;45.60;;;;;;6119627;23;20072;-74
2023/06/07 12:39:08;;;;;;;3.28;2.17;;;28.60;45.70;;;;;;6120998;23;20056;-76
2023/06/07 12:41:54;;;;;;;6.75;2.25;;;28.60;45.80;;;;;;6121147;23;20085;-76
2023/06/07 12:44:41;;;;;;;7.38;2.65;;;28.60;45.50;;;;;;6121671;23;20014;-75
2023/06/07 12:47:27;;;;;;;3.40;2.40;;;28.70;45.90;;;;;;6119406;23;20388;-76
2023/06/07 12:50:13;;;;;;;4.63;2.58;;;28.80;45.70;;;;;;6120468;23;20010;-71
2023/06/07 12:53:00;;;;;;;4.07;2.28;;;28.90;45.70;;;;;;6119074;23;20017;-72
2023/06/07 12:55:45;;;;;;;4.40;1.95;;;28.90;45.60;;;;;;6119790;23;20013;-72
2023/06/07 12:58:32;;;;;;;4.53;2.17;;;29.00;45.20;;;;;;6119482;23;20006;-73
2023/06/07 13:01:18;;;;;;;2.65;1.98;;;29.00;45.10;;;;;;6120851;23;20092;-72
2023/06/07 13:04:04;;;;;;;3.60;2.53;;;29.10;45.20;;;;;;6119906;23;20013;-71
2023/06/07 13:06:50;;;;;;;4.78;2.60;;;29.30;45.30;;;;;;6097960;23;20395;-80
2023/06/07 13:09:36;;;;;;;2.67;1.90;;;29.40;45.20;;;;;;6119748;23;20089;-74
2023/06/07 13:12:22;;;;;;;5.30;2.58;;;29.50;45.10;;;;;;6118940;23;20013;-75
2023/06/07 13:15:09;;;;;;;4.65;2.30;;;29.50;44.60;;;;;;6120827;23;20014;-74
2023/06/07 13:17:55;;;;;;;3.05;2.13;;;29.40;45.00;;;;;;6121253;23;20049;-72
2023/06/07 13:20:41;;;;;;;5.50;2.30;;;29.30;44.90;;;;;;6120339;23;20044;-72
2023/06/07 13:23:27;;;;;;;8.15;2.83;;;29.20;44.80;;;;;;6120041;23;20102;-73
2023/06/07 13:26:13;;;;;;;2.70;2.00;;;29.20;45.00;;;;;;6118853;23;20022;-74
2023/06/07 13:28:59;;;;;;;3.90;2.10;;;29.20;45.20;;;;;;6120191;23;20017;-73
2023/06/07 13:31:45;;;;;;;7.88;2.00;;;29.20;45.30;;;;;;6121535;23;20025;-74
2023/06/07 13:34:31;;;;;;;3.65;1.90;;;29.30;45.90;;;;;;6119078;23;20021;-72
2023/06/07 13:37:17;;;;;;;5.90;2.92;;;29.50;45.30;;;;;;6120481;23;20321;-73
2023/06/07 13:40:03;;;;;;;3.80;2.30;;;29.70;45.50;;;;;;6120892;23;20050;-71
2023/06/07 13:42:50;;;;;;;6.30;2.53;;;29.80;44.90;;;;;;6123003;23;20042;-65
2023/06/07 13:45:36;;;;;;;5.25;2.35;;;30.00;44.60;;;;;;6119867;23;20478;-66
2023/06/07 13:48:22;;;;;;;4.85;2.33;;;30.10;44.50;;;;;;6119833;23;20072;-65
2023/06/07 13:51:11;;;;;;;5.43;2.50;;;30.20;44.40;;;;;;6120277;23;20013;-65
2023/06/07 13:53:58;;;;;;;3.63;1.90;;;30.20;44.40;;;;;;6122056;23;20093;-66
2023/06/07 13:56:44;;;;;;;7.18;2.33;;;30.20;44.30;;;;;;6120130;23;20025;-64
2023/06/07 13:59:30;;;;;;;3.88;1.92;;;30.20;43.80;;;;;;6118518;23;20037;-66
2023/06/07 14:02:17;;;;;;;5.20;2.63;;;30.30;44.10;;;;;;6120351;23;20012;-67
2023/06/07 14:05:04;;;;;;;3.35;2.30;;;30.20;44.00;;;;;;6120137;23;20388;-64
2023/06/07 14:07:50;;;;;;;4.00;2.30;;;30.00;44.00;;;;;;6121042;23;20460;-64
2023/06/07 14:10:36;;;;;;;8.05;2.60;;;29.80;44.00;;;;;;6119118;23;20017;-65
2023/06/07 14:13:22;;;;;;;4.85;2.13;;;29.80;44.40;;;;;;6118881;23;20021;-64
2023/06/07 14:16:09;;;;;;;5.00;2.53;;;29.80;44.80;;;;;;6120594;23;20446;-64
2023/06/07 14:18:55;;;;;;;3.35;2.38;;;29.70;44.50;;;;;;6121492;23;20017;-65
2023/06/07 14:21:41;;;;;;;3.22;2.30;;;29.80;44.80;;;;;;6119948;23;20024;-65
2023/06/07 14:24:27;;;;;;;3.65;2.42;;;30.00;44.70;;;;;;6122081;23;20030;-65
2023/06/07 14:27:13;;;;;;;2.97;2.03;;;30.00;44.20;;;;;;6121727;23;20380;-64
2023/06/07 14:29:59;;;;;;;5.25;2.08;;;30.00;44.40;;;;;;6123360;23;20089;-65